SUD1B SLLP-SGAS
Flight info
| Callsign | SUD1B |
|---|---|
| Flight time | 1h 49m |
| Altitude | 35000 |
| Route | VAPAS UM657 UKELA |
| Aircraft | A321/M-SDFGHILORVWY/S |
Departure
| Time | 2026-05-07 11:05 |
|---|---|
| Airport | El Alto International Airport (SLLP) |
Arrival
| Time | 2026-05-07 12:54 |
|---|---|
| Airport | Silvio Pettirossi International Airport (SGAS) |
| Time | Latitude | Longitude | Altitude | Speed | Heading |
|---|---|---|---|---|---|
| 2026-05-07 10:35 | -16.50978 | -68.17692 | 13300 ft | 0 kts | 26° |
| 2026-05-07 10:49 | -16.50987 | -68.17696 | 13298 ft | 4 kts | 39° |
| 2026-05-07 10:49 | -16.50995 | -68.17716 | 13296 ft | 4 kts | 87° |
| 2026-05-07 10:50 | -16.50996 | -68.17727 | 13300 ft | 1 kts | 76° |
| 2026-05-07 10:54 | -16.50997 | -68.17721 | 13305 ft | 1 kts | 97° |
| 2026-05-07 10:54 | -16.51001 | -68.17718 | 13299 ft | 1 kts | 128° |
| 2026-05-07 10:54 | -16.51018 | -68.17700 | 13300 ft | 6 kts | 137° |
| 2026-05-07 10:55 | -16.51049 | -68.17656 | 13313 ft | 9 kts | 118° |
| 2026-05-07 10:55 | -16.51096 | -68.17591 | 13317 ft | 13 kts | 130° |
| 2026-05-07 10:55 | -16.51166 | -68.17508 | 13320 ft | 17 kts | 131° |
| 2026-05-07 10:55 | -16.51247 | -68.17407 | 13325 ft | 18 kts | 130° |
| 2026-05-07 10:56 | -16.51351 | -68.17362 | 13330 ft | 13 kts | 176° |
| 2026-05-07 10:56 | -16.51392 | -68.17419 | 13325 ft | 15 kts | 271° |
| 2026-05-07 10:56 | -16.51388 | -68.17572 | 13317 ft | 27 kts | 271° |
| 2026-05-07 10:56 | -16.51382 | -68.17734 | 13310 ft | 26 kts | 272° |
| 2026-05-07 10:57 | -16.51376 | -68.17924 | 13294 ft | 28 kts | 272° |
| 2026-05-07 10:57 | -16.51370 | -68.18107 | 13286 ft | 22 kts | 271° |
| 2026-05-07 10:57 | -16.51366 | -68.18275 | 13275 ft | 21 kts | 271° |
| 2026-05-07 10:57 | -16.51360 | -68.18457 | 13264 ft | 23 kts | 272° |
| 2026-05-07 10:58 | -16.51354 | -68.18638 | 13257 ft | 25 kts | 272° |
| 2026-05-07 10:58 | -16.51346 | -68.18830 | 13245 ft | 25 kts | 272° |
| 2026-05-07 10:58 | -16.51341 | -68.18998 | 13245 ft | 19 kts | 271° |
| 2026-05-07 10:58 | -16.51339 | -68.19144 | 13239 ft | 21 kts | 271° |
| 2026-05-07 10:59 | -16.51332 | -68.19296 | 13223 ft | 21 kts | 273° |
| 2026-05-07 10:59 | -16.51326 | -68.19450 | 13215 ft | 21 kts | 271° |
| 2026-05-07 10:59 | -16.51324 | -68.19589 | 13208 ft | 19 kts | 270° |
| 2026-05-07 10:59 | -16.51320 | -68.19724 | 13200 ft | 20 kts | 272° |
| 2026-05-07 11:00 | -16.51315 | -68.19855 | 13192 ft | 20 kts | 273° |
| 2026-05-07 11:00 | -16.51308 | -68.20016 | 13182 ft | 25 kts | 272° |
| 2026-05-07 11:00 | -16.51303 | -68.20178 | 13172 ft | 20 kts | 271° |
| 2026-05-07 11:00 | -16.51299 | -68.20340 | 13163 ft | 24 kts | 272° |
| 2026-05-07 11:01 | -16.51293 | -68.20529 | 13153 ft | 28 kts | 271° |
| 2026-05-07 11:01 | -16.51287 | -68.20727 | 13143 ft | 28 kts | 272° |
| 2026-05-07 11:01 | -16.51280 | -68.20928 | 13135 ft | 24 kts | 272° |
| 2026-05-07 11:01 | -16.51241 | -68.21030 | 13130 ft | 8 kts | 300° |
| 2026-05-07 11:02 | -16.51249 | -68.21083 | 13127 ft | 7 kts | 218° |
| 2026-05-07 11:02 | -16.51272 | -68.21069 | 13127 ft | 2 kts | 134° |
| 2026-05-07 11:02 | -16.51276 | -68.21060 | 13128 ft | 2 kts | 100° |
| 2026-05-07 11:02 | -16.51277 | -68.21033 | 13130 ft | 5 kts | 88° |
| 2026-05-07 11:03 | -16.51277 | -68.21014 | 13131 ft | 0 kts | 91° |
| 2026-05-07 11:03 | -16.51278 | -68.20993 | 13132 ft | 17 kts | 91° |
| 2026-05-07 11:03 | -16.51286 | -68.20675 | 13145 ft | 70 kts | 92° |
| 2026-05-07 11:04 | -16.51308 | -68.20005 | 13183 ft | 114 kts | 92° |
| 2026-05-07 11:04 | -16.51339 | -68.19046 | 13243 ft | 150 kts | 92° |
| 2026-05-07 11:04 | -16.51378 | -68.17859 | 13302 ft | 179 kts | 92° |
| 2026-05-07 11:04 | -16.51427 | -68.16512 | 13646 ft | 184 kts | 92° |
| 2026-05-07 11:05 | -16.51487 | -68.15182 | 14195 ft | 185 kts | 93° |
| 2026-05-07 11:05 | -16.51608 | -68.13825 | 14420 ft | 197 kts | 112° |
| 2026-05-07 11:05 | -16.52330 | -68.12618 | 14679 ft | 200 kts | 140° |
| 2026-05-07 11:05 | -16.53477 | -68.11804 | 14966 ft | 205 kts | 156° |
| 2026-05-07 11:06 | -16.54852 | -68.11277 | 15075 ft | 216 kts | 164° |
| 2026-05-07 11:06 | -16.56332 | -68.10840 | 15197 ft | 226 kts | 166° |
| 2026-05-07 11:06 | -16.57880 | -68.10395 | 15285 ft | 236 kts | 166° |
| 2026-05-07 11:06 | -16.59487 | -68.09917 | 15396 ft | 244 kts | 165° |
| 2026-05-07 11:07 | -16.61130 | -68.09407 | 15478 ft | 253 kts | 164° |
| 2026-05-07 11:07 | -16.62855 | -68.08853 | 15545 ft | 265 kts | 163° |
| 2026-05-07 11:07 | -16.64638 | -68.08212 | 15642 ft | 278 kts | 153° |
| 2026-05-07 11:07 | -16.66168 | -68.06960 | 15846 ft | 285 kts | 133° |
| 2026-05-07 11:08 | -16.67503 | -68.05421 | 16133 ft | 288 kts | 133° |
| 2026-05-07 11:08 | -16.68847 | -68.03863 | 16453 ft | 290 kts | 133° |
| 2026-05-07 11:08 | -16.70201 | -68.02290 | 16771 ft | 292 kts | 133° |
| 2026-05-07 11:08 | -16.71566 | -68.00709 | 17074 ft | 294 kts | 133° |
| 2026-05-07 11:09 | -16.72926 | -67.99135 | 17387 ft | 297 kts | 133° |
| 2026-05-07 11:09 | -16.74274 | -67.97578 | 17696 ft | 299 kts | 133° |
| 2026-05-07 11:09 | -16.75690 | -67.95954 | 17870 ft | 307 kts | 133° |
| 2026-05-07 11:09 | -16.77168 | -67.94292 | 17963 ft | 318 kts | 133° |
| 2026-05-07 11:10 | -16.78705 | -67.92578 | 18072 ft | 329 kts | 134° |
| 2026-05-07 11:10 | -16.80294 | -67.90808 | 18194 ft | 339 kts | 134° |
| 2026-05-07 11:10 | -16.81933 | -67.88986 | 18337 ft | 349 kts | 134° |
| 2026-05-07 11:10 | -16.83615 | -67.87112 | 18454 ft | 359 kts | 134° |
| 2026-05-07 11:11 | -16.85340 | -67.85181 | 18571 ft | 368 kts | 134° |
| 2026-05-07 11:11 | -16.87102 | -67.83202 | 18685 ft | 377 kts | 134° |
| 2026-05-07 11:11 | -16.88907 | -67.81171 | 18787 ft | 386 kts | 134° |
| 2026-05-07 11:11 | -16.90754 | -67.79094 | 18920 ft | 394 kts | 134° |
| 2026-05-07 11:12 | -16.92640 | -67.76975 | 19062 ft | 401 kts | 134° |
| 2026-05-07 11:12 | -16.94533 | -67.74845 | 19318 ft | 405 kts | 134° |
| 2026-05-07 11:12 | -16.96456 | -67.72679 | 19581 ft | 407 kts | 134° |
| 2026-05-07 11:12 | -16.98387 | -67.70510 | 19829 ft | 409 kts | 134° |
| 2026-05-07 11:13 | -17.00326 | -67.68335 | 20104 ft | 410 kts | 134° |
| 2026-05-07 11:13 | -17.02273 | -67.66148 | 20423 ft | 412 kts | 134° |
| 2026-05-07 11:13 | -17.04232 | -67.63948 | 20697 ft | 414 kts | 134° |
| 2026-05-07 11:13 | -17.06198 | -67.61741 | 20972 ft | 416 kts | 134° |
| 2026-05-07 11:14 | -17.08144 | -67.59551 | 21275 ft | 417 kts | 134° |
| 2026-05-07 11:14 | -17.10117 | -67.57322 | 21535 ft | 419 kts | 134° |
| 2026-05-07 11:14 | -17.12102 | -67.55082 | 21804 ft | 421 kts | 135° |
| 2026-05-07 11:14 | -17.14099 | -67.52832 | 22082 ft | 424 kts | 135° |
| 2026-05-07 11:15 | -17.16114 | -67.50572 | 22323 ft | 426 kts | 135° |
| 2026-05-07 11:15 | -17.18147 | -67.48307 | 22554 ft | 428 kts | 135° |
| 2026-05-07 11:15 | -17.20194 | -67.46032 | 22813 ft | 430 kts | 135° |
| 2026-05-07 11:15 | -17.22248 | -67.43752 | 23071 ft | 432 kts | 135° |
| 2026-05-07 11:16 | -17.24313 | -67.41457 | 23319 ft | 434 kts | 135° |
| 2026-05-07 11:16 | -17.26379 | -67.39156 | 23578 ft | 435 kts | 135° |
| 2026-05-07 11:16 | -17.28451 | -67.36838 | 23832 ft | 437 kts | 135° |
| 2026-05-07 11:16 | -17.30532 | -67.34510 | 24054 ft | 439 kts | 135° |
| 2026-05-07 11:17 | -17.32624 | -67.32172 | 24244 ft | 441 kts | 135° |
| 2026-05-07 11:17 | -17.34719 | -67.29830 | 24457 ft | 442 kts | 135° |
| 2026-05-07 11:17 | -17.36829 | -67.27467 | 24684 ft | 444 kts | 135° |
| 2026-05-07 11:17 | -17.38941 | -67.25103 | 24894 ft | 446 kts | 135° |
| 2026-05-07 11:18 | -17.41065 | -67.22721 | 25107 ft | 448 kts | 135° |
| 2026-05-07 11:18 | -17.43195 | -67.20331 | 25337 ft | 450 kts | 135° |
| 2026-05-07 11:18 | -17.45332 | -67.17935 | 25558 ft | 451 kts | 135° |
| 2026-05-07 11:18 | -17.47476 | -67.15529 | 25787 ft | 453 kts | 135° |
| 2026-05-07 11:19 | -17.49633 | -67.13112 | 25998 ft | 455 kts | 135° |
| 2026-05-07 11:19 | -17.51797 | -67.10691 | 26211 ft | 456 kts | 135° |
| 2026-05-07 11:19 | -17.53973 | -67.08258 | 26410 ft | 458 kts | 135° |
| 2026-05-07 11:19 | -17.56152 | -67.05818 | 26607 ft | 460 kts | 135° |
| 2026-05-07 11:20 | -17.58344 | -67.03360 | 26826 ft | 462 kts | 135° |
| 2026-05-07 11:20 | -17.60509 | -67.00925 | 27019 ft | 464 kts | 135° |
| 2026-05-07 11:20 | -17.62711 | -66.98444 | 27215 ft | 466 kts | 135° |
| 2026-05-07 11:20 | -17.64926 | -66.95948 | 27438 ft | 468 kts | 135° |
| 2026-05-07 11:21 | -17.67147 | -66.93451 | 27642 ft | 470 kts | 135° |
| 2026-05-07 11:21 | -17.69383 | -66.90939 | 27853 ft | 472 kts | 135° |
| 2026-05-07 11:21 | -17.71626 | -66.88420 | 28027 ft | 474 kts | 135° |
| 2026-05-07 11:21 | -17.73880 | -66.85893 | 28226 ft | 476 kts | 135° |
| 2026-05-07 11:22 | -17.76143 | -66.83349 | 28418 ft | 477 kts | 135° |
| 2026-05-07 11:22 | -17.78410 | -66.80798 | 28606 ft | 479 kts | 135° |
| 2026-05-07 11:22 | -17.80686 | -66.78232 | 28808 ft | 481 kts | 135° |
| 2026-05-07 11:22 | -17.82966 | -66.75660 | 28967 ft | 483 kts | 135° |
| 2026-05-07 11:23 | -17.85262 | -66.73068 | 29141 ft | 485 kts | 135° |
| 2026-05-07 11:23 | -17.87561 | -66.70472 | 29296 ft | 487 kts | 135° |
| 2026-05-07 11:23 | -17.89872 | -66.67868 | 29481 ft | 488 kts | 135° |
| 2026-05-07 11:23 | -17.92200 | -66.65261 | 29664 ft | 490 kts | 135° |
| 2026-05-07 11:24 | -17.94538 | -66.62650 | 29822 ft | 491 kts | 135° |
| 2026-05-07 11:24 | -17.96885 | -66.60034 | 29983 ft | 493 kts | 135° |
| 2026-05-07 11:24 | -17.99238 | -66.57409 | 30149 ft | 494 kts | 135° |
| 2026-05-07 11:24 | -18.01602 | -66.54773 | 30296 ft | 496 kts | 135° |
| 2026-05-07 11:25 | -18.03968 | -66.52135 | 30433 ft | 497 kts | 135° |
| 2026-05-07 11:25 | -18.06344 | -66.49482 | 30534 ft | 499 kts | 135° |
| 2026-05-07 11:25 | -18.08715 | -66.46827 | 30686 ft | 499 kts | 135° |
| 2026-05-07 11:25 | -18.11087 | -66.44168 | 30874 ft | 498 kts | 135° |
| 2026-05-07 11:26 | -18.13455 | -66.41510 | 31059 ft | 498 kts | 135° |
| 2026-05-07 11:26 | -18.15820 | -66.38854 | 31248 ft | 498 kts | 135° |
| 2026-05-07 11:26 | -18.18194 | -66.36196 | 31389 ft | 498 kts | 135° |
| 2026-05-07 11:26 | -18.20563 | -66.33546 | 31569 ft | 498 kts | 135° |
| 2026-05-07 11:27 | -18.22928 | -66.30893 | 31748 ft | 497 kts | 135° |
| 2026-05-07 11:27 | -18.25292 | -66.28234 | 31928 ft | 497 kts | 135° |
| 2026-05-07 11:27 | -18.27659 | -66.25574 | 32118 ft | 498 kts | 136° |
| 2026-05-07 11:27 | -18.30025 | -66.22915 | 32230 ft | 498 kts | 136° |
| 2026-05-07 11:28 | -18.32387 | -66.20258 | 32406 ft | 497 kts | 136° |
| 2026-05-07 11:28 | -18.34753 | -66.17596 | 32585 ft | 497 kts | 136° |
| 2026-05-07 11:28 | -18.37113 | -66.14941 | 32743 ft | 497 kts | 136° |
| 2026-05-07 11:28 | -18.39478 | -66.12281 | 32911 ft | 497 kts | 136° |
| 2026-05-07 11:29 | -18.41842 | -66.09621 | 33063 ft | 497 kts | 136° |
| 2026-05-07 11:29 | -18.44204 | -66.06963 | 33229 ft | 496 kts | 136° |
| 2026-05-07 11:29 | -18.46561 | -66.04309 | 33414 ft | 496 kts | 136° |
| 2026-05-07 11:29 | -18.48914 | -66.01654 | 33587 ft | 496 kts | 136° |
| 2026-05-07 11:30 | -18.51270 | -65.98999 | 33753 ft | 496 kts | 136° |
| 2026-05-07 11:30 | -18.53632 | -65.96355 | 33965 ft | 496 kts | 137° |
| 2026-05-07 11:30 | -18.55998 | -65.93715 | 34152 ft | 496 kts | 137° |
| 2026-05-07 11:30 | -18.58331 | -65.91112 | 34286 ft | 496 kts | 137° |
| 2026-05-07 11:31 | -18.60698 | -65.88466 | 34456 ft | 495 kts | 137° |
| 2026-05-07 11:31 | -18.63060 | -65.85820 | 34590 ft | 495 kts | 137° |
| 2026-05-07 11:31 | -18.65416 | -65.83177 | 34705 ft | 495 kts | 137° |
| 2026-05-07 11:31 | -18.67778 | -65.80526 | 34860 ft | 495 kts | 137° |
| 2026-05-07 11:32 | -18.72500 | -65.75227 | 35137 ft | 496 kts | 137° |
| 2026-05-07 11:32 | -18.74859 | -65.72583 | 35128 ft | 494 kts | 137° |
| 2026-05-07 11:33 | -18.79566 | -65.67308 | 35144 ft | 494 kts | 137° |
| 2026-05-07 11:33 | -18.84274 | -65.62014 | 35134 ft | 495 kts | 137° |
| 2026-05-07 11:34 | -18.88178 | -65.57611 | 35097 ft | 494 kts | 137° |
| 2026-05-07 11:34 | -18.92874 | -65.52316 | 35106 ft | 494 kts | 137° |
| 2026-05-07 11:35 | -18.97592 | -65.47039 | 35093 ft | 494 kts | 137° |
| 2026-05-07 11:35 | -19.02315 | -65.41761 | 35122 ft | 494 kts | 137° |
| 2026-05-07 11:36 | -19.07036 | -65.36468 | 35210 ft | 495 kts | 137° |
| 2026-05-07 11:36 | -19.11774 | -65.31162 | 35261 ft | 496 kts | 137° |
| 2026-05-07 11:37 | -19.16517 | -65.25852 | 35350 ft | 496 kts | 137° |
| 2026-05-07 11:37 | -19.21243 | -65.20543 | 35414 ft | 496 kts | 137° |
| 2026-05-07 11:38 | -19.25940 | -65.15199 | 35411 ft | 497 kts | 133° |
| 2026-05-07 11:38 | -19.29789 | -65.09067 | 35404 ft | 500 kts | 124° |
| 2026-05-07 11:39 | -19.33405 | -65.02774 | 35324 ft | 500 kts | 124° |
| 2026-05-07 11:39 | -19.37032 | -64.96478 | 35221 ft | 501 kts | 124° |
| 2026-05-07 11:40 | -19.40667 | -64.90170 | 35113 ft | 501 kts | 124° |
| 2026-05-07 11:40 | -19.44312 | -64.83874 | 34996 ft | 501 kts | 124° |
| 2026-05-07 11:41 | -19.47972 | -64.77559 | 34993 ft | 502 kts | 124° |
| 2026-05-07 11:41 | -19.51593 | -64.71291 | 34954 ft | 502 kts | 124° |
| 2026-05-07 11:42 | -19.55237 | -64.64971 | 34937 ft | 502 kts | 124° |
| 2026-05-07 11:42 | -19.58876 | -64.58655 | 34904 ft | 501 kts | 124° |
| 2026-05-07 11:43 | -19.62518 | -64.52340 | 34892 ft | 502 kts | 124° |
| 2026-05-07 11:43 | -19.66164 | -64.46010 | 34855 ft | 503 kts | 124° |
| 2026-05-07 11:44 | -19.69799 | -64.39670 | 34857 ft | 503 kts | 124° |
| 2026-05-07 11:44 | -19.73442 | -64.33321 | 34828 ft | 503 kts | 124° |
| 2026-05-07 11:45 | -19.77081 | -64.26973 | 34824 ft | 504 kts | 124° |
| 2026-05-07 11:45 | -19.80725 | -64.20605 | 34803 ft | 504 kts | 124° |
| 2026-05-07 11:46 | -19.84368 | -64.14240 | 34798 ft | 504 kts | 124° |
| 2026-05-07 11:46 | -19.88014 | -64.07861 | 34780 ft | 506 kts | 124° |
| 2026-05-07 11:47 | -19.91672 | -64.01460 | 34777 ft | 506 kts | 124° |
| 2026-05-07 11:47 | -19.95329 | -63.95077 | 34789 ft | 506 kts | 124° |
| 2026-05-07 11:48 | -19.98991 | -63.88682 | 34794 ft | 506 kts | 124° |
| 2026-05-07 11:48 | -20.02664 | -63.82298 | 34783 ft | 505 kts | 124° |
| 2026-05-07 11:49 | -20.06313 | -63.75970 | 34785 ft | 505 kts | 125° |
| 2026-05-07 11:49 | -20.09996 | -63.69606 | 34833 ft | 505 kts | 125° |
| 2026-05-07 11:50 | -20.13672 | -63.63243 | 34841 ft | 505 kts | 125° |
| 2026-05-07 11:50 | -20.17339 | -63.56886 | 34833 ft | 503 kts | 125° |
| 2026-05-07 11:51 | -20.21006 | -63.50529 | 34825 ft | 504 kts | 125° |
| 2026-05-07 11:51 | -20.24670 | -63.44165 | 34807 ft | 504 kts | 124° |
| 2026-05-07 11:52 | -20.28324 | -63.37794 | 34798 ft | 504 kts | 125° |
| 2026-05-07 11:52 | -20.31981 | -63.31416 | 34765 ft | 504 kts | 125° |
| 2026-05-07 11:53 | -20.35607 | -63.25095 | 34755 ft | 505 kts | 125° |
| 2026-05-07 11:53 | -20.39292 | -63.18642 | 34744 ft | 505 kts | 124° |
| 2026-05-07 11:54 | -20.42940 | -63.12254 | 34734 ft | 505 kts | 125° |
| 2026-05-07 11:54 | -20.46572 | -63.05901 | 34742 ft | 505 kts | 125° |
| 2026-05-07 11:55 | -20.50234 | -62.99527 | 34716 ft | 504 kts | 125° |
| 2026-05-07 11:55 | -20.53929 | -62.93169 | 34723 ft | 504 kts | 125° |
| 2026-05-07 11:56 | -20.57623 | -62.86805 | 34715 ft | 505 kts | 125° |
| 2026-05-07 11:56 | -20.61301 | -62.80422 | 34712 ft | 505 kts | 125° |
| 2026-05-07 11:57 | -20.64979 | -62.74033 | 34708 ft | 505 kts | 125° |
| 2026-05-07 11:57 | -20.68664 | -62.67641 | 34705 ft | 505 kts | 125° |
| 2026-05-07 11:58 | -20.72339 | -62.61245 | 34709 ft | 506 kts | 125° |
| 2026-05-07 11:58 | -20.76020 | -62.54837 | 34715 ft | 506 kts | 125° |
| 2026-05-07 11:59 | -20.79705 | -62.48422 | 34701 ft | 507 kts | 125° |
| 2026-05-07 11:59 | -20.83395 | -62.41987 | 34698 ft | 508 kts | 125° |
| 2026-05-07 12:00 | -20.87081 | -62.35541 | 34705 ft | 508 kts | 125° |
| 2026-05-07 12:00 | -20.90770 | -62.29089 | 34712 ft | 508 kts | 125° |
| 2026-05-07 12:01 | -20.94452 | -62.22636 | 34708 ft | 508 kts | 126° |
| 2026-05-07 12:01 | -20.98568 | -62.16547 | 34726 ft | 505 kts | 131° |
| 2026-05-07 12:02 | -21.02758 | -62.10527 | 34717 ft | 505 kts | 131° |
| 2026-05-07 12:02 | -21.06924 | -62.04517 | 34717 ft | 505 kts | 131° |
| 2026-05-07 12:03 | -21.11112 | -61.98469 | 34714 ft | 506 kts | 131° |
| 2026-05-07 12:03 | -21.15303 | -61.92412 | 34722 ft | 506 kts | 131° |
| 2026-05-07 12:04 | -21.19494 | -61.86358 | 34726 ft | 505 kts | 131° |
| 2026-05-07 12:04 | -21.23674 | -61.80298 | 34725 ft | 506 kts | 130° |
| 2026-05-07 12:05 | -21.27863 | -61.74237 | 34707 ft | 506 kts | 130° |
| 2026-05-07 12:05 | -21.32052 | -61.68163 | 34713 ft | 507 kts | 130° |
| 2026-05-07 12:06 | -21.36233 | -61.62074 | 34723 ft | 507 kts | 130° |
| 2026-05-07 12:06 | -21.40424 | -61.55989 | 34713 ft | 507 kts | 130° |
| 2026-05-07 12:07 | -21.44615 | -61.49899 | 34729 ft | 507 kts | 130° |
| 2026-05-07 12:07 | -21.48797 | -61.43803 | 34724 ft | 508 kts | 130° |
| 2026-05-07 12:08 | -21.52980 | -61.37691 | 34721 ft | 508 kts | 130° |
| 2026-05-07 12:08 | -21.57169 | -61.31572 | 34726 ft | 508 kts | 130° |
| 2026-05-07 12:09 | -21.61356 | -61.25449 | 34725 ft | 509 kts | 130° |
| 2026-05-07 12:09 | -21.65523 | -61.19360 | 34730 ft | 509 kts | 130° |
| 2026-05-07 12:10 | -21.69712 | -61.13233 | 34738 ft | 509 kts | 130° |
| 2026-05-07 12:10 | -21.73898 | -61.07077 | 34743 ft | 509 kts | 130° |
| 2026-05-07 12:11 | -21.78079 | -61.00927 | 34738 ft | 509 kts | 130° |
| 2026-05-07 12:11 | -21.82264 | -60.94779 | 34746 ft | 509 kts | 130° |
| 2026-05-07 12:12 | -21.86451 | -60.88624 | 34739 ft | 509 kts | 130° |
| 2026-05-07 12:12 | -21.90632 | -60.82477 | 34764 ft | 509 kts | 130° |
| 2026-05-07 12:13 | -21.94811 | -60.76325 | 34746 ft | 509 kts | 130° |
| 2026-05-07 12:13 | -21.98975 | -60.70173 | 34755 ft | 509 kts | 130° |
| 2026-05-07 12:14 | -22.03121 | -60.64036 | 34751 ft | 508 kts | 131° |
| 2026-05-07 12:14 | -22.07966 | -60.58626 | 34757 ft | 498 kts | 144° |
| 2026-05-07 12:15 | -22.13149 | -60.53654 | 34769 ft | 499 kts | 144° |
| 2026-05-07 12:15 | -22.18321 | -60.48662 | 34764 ft | 499 kts | 143° |
| 2026-05-07 12:16 | -22.23495 | -60.43644 | 34758 ft | 500 kts | 143° |
| 2026-05-07 12:16 | -22.28659 | -60.38628 | 34764 ft | 500 kts | 143° |
| 2026-05-07 12:17 | -22.33824 | -60.33587 | 34760 ft | 500 kts | 143° |
| 2026-05-07 12:17 | -22.38978 | -60.28545 | 34769 ft | 500 kts | 143° |
| 2026-05-07 12:18 | -22.44145 | -60.23499 | 34769 ft | 500 kts | 143° |
| 2026-05-07 12:18 | -22.49303 | -60.18440 | 34768 ft | 500 kts | 143° |
| 2026-05-07 12:19 | -22.54449 | -60.13388 | 34769 ft | 500 kts | 143° |
| 2026-05-07 12:19 | -22.59603 | -60.08333 | 34785 ft | 500 kts | 143° |
| 2026-05-07 12:20 | -22.63885 | -60.04137 | 34779 ft | 500 kts | 143° |
| 2026-05-07 12:20 | -22.69032 | -59.99081 | 34771 ft | 500 kts | 143° |
| 2026-05-07 12:21 | -22.74218 | -59.94049 | 34778 ft | 499 kts | 144° |
| 2026-05-07 12:21 | -22.79477 | -59.89140 | 34774 ft | 499 kts | 145° |
| 2026-05-07 12:22 | -22.84750 | -59.84252 | 34786 ft | 499 kts | 145° |
| 2026-05-07 12:22 | -22.90020 | -59.79317 | 34775 ft | 500 kts | 144° |
| 2026-05-07 12:23 | -22.95276 | -59.74357 | 34772 ft | 501 kts | 144° |
| 2026-05-07 12:23 | -23.00523 | -59.69383 | 34771 ft | 501 kts | 144° |
| 2026-05-07 12:24 | -23.05767 | -59.64420 | 34772 ft | 502 kts | 144° |
| 2026-05-07 12:24 | -23.11035 | -59.59435 | 34771 ft | 502 kts | 144° |
| 2026-05-07 12:25 | -23.16306 | -59.54446 | 34768 ft | 503 kts | 144° |
| 2026-05-07 12:25 | -23.21581 | -59.49452 | 34767 ft | 503 kts | 144° |
| 2026-05-07 12:26 | -23.26853 | -59.44452 | 34776 ft | 503 kts | 144° |
| 2026-05-07 12:26 | -23.32086 | -59.39481 | 34784 ft | 504 kts | 144° |
| 2026-05-07 12:27 | -23.37387 | -59.34444 | 34781 ft | 505 kts | 144° |
| 2026-05-07 12:27 | -23.42676 | -59.29396 | 34772 ft | 506 kts | 144° |
| 2026-05-07 12:28 | -23.47962 | -59.24343 | 34782 ft | 505 kts | 144° |
| 2026-05-07 12:28 | -23.53249 | -59.19300 | 34803 ft | 505 kts | 144° |
| 2026-05-07 12:29 | -23.58550 | -59.14253 | 34790 ft | 506 kts | 144° |
| 2026-05-07 12:29 | -23.63854 | -59.09189 | 34781 ft | 507 kts | 144° |
| 2026-05-07 12:30 | -23.69151 | -59.04119 | 34578 ft | 504 kts | 144° |
| 2026-05-07 12:30 | -23.71774 | -59.01604 | 34344 ft | 499 kts | 144° |
| 2026-05-07 12:30 | -23.74365 | -58.99117 | 34113 ft | 495 kts | 144° |
| 2026-05-07 12:30 | -23.76951 | -58.96632 | 33900 ft | 495 kts | 145° |
| 2026-05-07 12:31 | -23.79531 | -58.94155 | 33656 ft | 493 kts | 145° |
| 2026-05-07 12:31 | -23.82105 | -58.91683 | 33396 ft | 492 kts | 144° |
| 2026-05-07 12:31 | -23.84631 | -58.89255 | 33131 ft | 490 kts | 144° |
| 2026-05-07 12:31 | -23.87220 | -58.86760 | 32844 ft | 487 kts | 144° |
| 2026-05-07 12:32 | -23.89716 | -58.84352 | 32301 ft | 484 kts | 144° |
| 2026-05-07 12:32 | -23.92272 | -58.81890 | 31756 ft | 482 kts | 144° |
| 2026-05-07 12:32 | -23.94752 | -58.79505 | 31234 ft | 480 kts | 144° |
| 2026-05-07 12:32 | -23.97256 | -58.77100 | 30707 ft | 478 kts | 144° |
| 2026-05-07 12:33 | -24.02224 | -58.72316 | 29773 ft | 473 kts | 143° |
| 2026-05-07 12:33 | -24.04672 | -58.69952 | 29293 ft | 468 kts | 143° |
| 2026-05-07 12:33 | -24.07102 | -58.67603 | 28861 ft | 463 kts | 143° |
| 2026-05-07 12:34 | -24.09505 | -58.65282 | 28438 ft | 458 kts | 143° |
| 2026-05-07 12:34 | -24.11879 | -58.62992 | 28018 ft | 453 kts | 143° |
| 2026-05-07 12:34 | -24.14228 | -58.60723 | 27605 ft | 448 kts | 143° |
| 2026-05-07 12:34 | -24.16551 | -58.58476 | 27217 ft | 443 kts | 143° |
| 2026-05-07 12:35 | -24.18850 | -58.56252 | 26821 ft | 439 kts | 143° |
| 2026-05-07 12:35 | -24.21124 | -58.54054 | 26445 ft | 435 kts | 143° |
| 2026-05-07 12:35 | -24.23383 | -58.51870 | 26058 ft | 430 kts | 143° |
| 2026-05-07 12:35 | -24.25618 | -58.49710 | 25682 ft | 426 kts | 142° |
| 2026-05-07 12:36 | -24.27827 | -58.47566 | 25279 ft | 422 kts | 142° |
| 2026-05-07 12:36 | -24.30015 | -58.45444 | 24904 ft | 418 kts | 142° |
| 2026-05-07 12:36 | -24.32183 | -58.43343 | 24516 ft | 414 kts | 142° |
| 2026-05-07 12:36 | -24.34329 | -58.41263 | 24126 ft | 411 kts | 142° |
| 2026-05-07 12:37 | -24.36463 | -58.39195 | 23736 ft | 407 kts | 141° |
| 2026-05-07 12:37 | -24.38579 | -58.37142 | 23329 ft | 405 kts | 141° |
| 2026-05-07 12:37 | -24.40680 | -58.35099 | 22885 ft | 401 kts | 141° |
| 2026-05-07 12:37 | -24.42756 | -58.33081 | 22506 ft | 397 kts | 141° |
| 2026-05-07 12:38 | -24.44813 | -58.31081 | 22088 ft | 393 kts | 141° |
| 2026-05-07 12:38 | -24.46850 | -58.29101 | 21698 ft | 389 kts | 141° |
| 2026-05-07 12:38 | -24.48865 | -58.27139 | 21290 ft | 386 kts | 141° |
| 2026-05-07 12:38 | -24.50860 | -58.25198 | 20896 ft | 382 kts | 141° |
| 2026-05-07 12:39 | -24.52840 | -58.23271 | 20508 ft | 379 kts | 141° |
| 2026-05-07 12:39 | -24.54808 | -58.21359 | 20113 ft | 376 kts | 140° |
| 2026-05-07 12:39 | -24.56754 | -58.19465 | 19715 ft | 373 kts | 140° |
| 2026-05-07 12:39 | -24.58687 | -58.17580 | 19334 ft | 370 kts | 140° |
| 2026-05-07 12:40 | -24.60600 | -58.15711 | 18942 ft | 367 kts | 140° |
| 2026-05-07 12:40 | -24.62543 | -58.13920 | 18567 ft | 363 kts | 146° |
| 2026-05-07 12:40 | -24.64635 | -58.12391 | 18174 ft | 360 kts | 149° |
| 2026-05-07 12:40 | -24.66723 | -58.10888 | 17745 ft | 358 kts | 148° |
| 2026-05-07 12:41 | -24.68797 | -58.09392 | 17345 ft | 355 kts | 148° |
| 2026-05-07 12:41 | -24.70810 | -58.07937 | 16964 ft | 351 kts | 148° |
| 2026-05-07 12:41 | -24.72826 | -58.06479 | 16579 ft | 349 kts | 148° |
| 2026-05-07 12:41 | -24.74777 | -58.05065 | 16198 ft | 346 kts | 148° |
| 2026-05-07 12:42 | -24.76769 | -58.03621 | 15824 ft | 344 kts | 148° |
| 2026-05-07 12:42 | -24.78745 | -58.02190 | 15447 ft | 342 kts | 148° |
| 2026-05-07 12:42 | -24.80755 | -58.00735 | 15061 ft | 341 kts | 148° |
| 2026-05-07 12:42 | -24.82736 | -57.99301 | 14690 ft | 339 kts | 148° |
| 2026-05-07 12:43 | -24.84705 | -57.97876 | 14300 ft | 338 kts | 148° |
| 2026-05-07 12:43 | -24.86667 | -57.96455 | 13925 ft | 337 kts | 148° |
| 2026-05-07 12:43 | -24.88599 | -57.95053 | 13539 ft | 337 kts | 147° |
| 2026-05-07 12:43 | -24.90574 | -57.93617 | 13130 ft | 335 kts | 147° |
| 2026-05-07 12:44 | -24.92396 | -57.92293 | 12779 ft | 333 kts | 147° |
| 2026-05-07 12:44 | -24.94321 | -57.90892 | 12407 ft | 331 kts | 147° |
| 2026-05-07 12:44 | -24.96217 | -57.89515 | 12038 ft | 329 kts | 147° |
| 2026-05-07 12:44 | -24.98153 | -57.88110 | 11658 ft | 328 kts | 147° |
| 2026-05-07 12:45 | -25.00025 | -57.86750 | 11288 ft | 327 kts | 147° |
| 2026-05-07 12:45 | -25.01919 | -57.85372 | 10909 ft | 326 kts | 146° |
| 2026-05-07 12:45 | -25.03810 | -57.83995 | 10539 ft | 326 kts | 146° |
| 2026-05-07 12:45 | -25.05697 | -57.82620 | 10159 ft | 325 kts | 146° |
| 2026-05-07 12:46 | -25.07581 | -57.81246 | 9786 ft | 325 kts | 146° |
| 2026-05-07 12:46 | -25.09500 | -57.79850 | 9381 ft | 326 kts | 146° |
| 2026-05-07 12:46 | -25.11365 | -57.78494 | 8991 ft | 325 kts | 145° |
| 2026-05-07 12:46 | -25.13251 | -57.77121 | 8609 ft | 324 kts | 145° |
| 2026-05-07 12:47 | -25.15124 | -57.75756 | 8220 ft | 323 kts | 145° |
| 2026-05-07 12:47 | -25.16996 | -57.74392 | 7844 ft | 322 kts | 144° |
| 2026-05-07 12:47 | -25.18864 | -57.73031 | 7462 ft | 322 kts | 144° |
| 2026-05-07 12:47 | -25.20734 | -57.71667 | 7079 ft | 322 kts | 144° |
| 2026-05-07 12:48 | -25.22600 | -57.70303 | 6696 ft | 322 kts | 144° |
| 2026-05-07 12:48 | -25.24381 | -57.69002 | 6327 ft | 322 kts | 143° |
| 2026-05-07 12:48 | -25.26251 | -57.67636 | 5924 ft | 323 kts | 143° |
| 2026-05-07 12:48 | -25.28132 | -57.66263 | 5525 ft | 323 kts | 143° |
| 2026-05-07 12:49 | -25.30009 | -57.64891 | 5111 ft | 324 kts | 143° |
| 2026-05-07 12:49 | -25.31885 | -57.63519 | 4760 ft | 323 kts | 143° |
| 2026-05-07 12:49 | -25.33692 | -57.62200 | 4616 ft | 307 kts | 142° |
| 2026-05-07 12:49 | -25.35466 | -57.60904 | 4205 ft | 304 kts | 142° |
| 2026-05-07 12:50 | -25.37129 | -57.59517 | 3709 ft | 291 kts | 123° |
| 2026-05-07 12:50 | -25.37939 | -57.57718 | 3279 ft | 246 kts | 83° |
| 2026-05-07 12:50 | -25.37702 | -57.56143 | 2974 ft | 193 kts | 47° |
| 2026-05-07 12:50 | -25.36852 | -57.55175 | 2608 ft | 167 kts | 24° |
| 2026-05-07 12:51 | -25.35846 | -57.54733 | 2442 ft | 149 kts | 7° |
| 2026-05-07 12:51 | -25.34845 | -57.54517 | 2266 ft | 145 kts | 8° |
| 2026-05-07 12:51 | -25.33865 | -57.54289 | 2008 ft | 144 kts | 9° |
| 2026-05-07 12:51 | -25.32929 | -57.54067 | 1792 ft | 126 kts | 11° |
| 2026-05-07 12:52 | -25.32118 | -57.53870 | 1647 ft | 114 kts | 9° |
| 2026-05-07 12:52 | -25.31354 | -57.53686 | 1490 ft | 110 kts | 10° |
| 2026-05-07 12:52 | -25.30600 | -57.53505 | 1334 ft | 111 kts | 10° |
| 2026-05-07 12:52 | -25.29833 | -57.53320 | 1207 ft | 115 kts | 12° |
| 2026-05-07 12:53 | -25.29037 | -57.53140 | 1028 ft | 122 kts | 11° |
| 2026-05-07 12:53 | -25.28189 | -57.52949 | 880 ft | 129 kts | 11° |
| 2026-05-07 12:53 | -25.27292 | -57.52722 | 788 ft | 134 kts | 14° |
| 2026-05-07 12:53 | -25.26373 | -57.52500 | 598 ft | 139 kts | 14° |
| 2026-05-07 12:54 | -25.25428 | -57.52276 | 389 ft | 138 kts | 14° |
| 2026-05-07 12:54 | -25.24508 | -57.52036 | 296 ft | 134 kts | 14° |
| 2026-05-07 12:54 | -25.23708 | -57.51842 | 274 ft | 94 kts | 12° |
| 2026-05-07 12:54 | -25.23338 | -57.51759 | 270 ft | 30 kts | 12° |
| 2026-05-07 12:55 | -25.23153 | -57.51714 | 269 ft | 25 kts | 12° |
| 2026-05-07 12:55 | -25.23062 | -57.51652 | 268 ft | 10 kts | 75° |
| 2026-05-07 12:55 | -25.23072 | -57.51576 | 268 ft | 11 kts | 102° |
| 2026-05-07 12:55 | -25.23094 | -57.51501 | 268 ft | 5 kts | 129° |
| 2026-05-07 12:56 | -25.23133 | -57.51490 | 269 ft | 6 kts | 183° |
| 2026-05-07 12:56 | -25.23182 | -57.51502 | 269 ft | 7 kts | 192° |
| 2026-05-07 12:56 | -25.23233 | -57.51514 | 270 ft | 8 kts | 192° |
| 2026-05-07 12:56 | -25.23288 | -57.51527 | 271 ft | 8 kts | 192° |
| 2026-05-07 12:57 | -25.23346 | -57.51541 | 272 ft | 9 kts | 192° |
| 2026-05-07 12:57 | -25.23406 | -57.51556 | 272 ft | 9 kts | 192° |
| 2026-05-07 12:57 | -25.23459 | -57.51568 | 273 ft | 6 kts | 193° |
| 2026-05-07 12:57 | -25.23492 | -57.51577 | 273 ft | 4 kts | 193° |
| 2026-05-07 12:58 | -25.23518 | -57.51584 | 274 ft | 4 kts | 194° |
| 2026-05-07 12:58 | -25.23553 | -57.51593 | 274 ft | 7 kts | 193° |
| 2026-05-07 12:58 | -25.23612 | -57.51608 | 275 ft | 11 kts | 192° |
| 2026-05-07 12:58 | -25.23698 | -57.51629 | 276 ft | 15 kts | 193° |
| 2026-05-07 12:59 | -25.23811 | -57.51658 | 277 ft | 18 kts | 190° |
| 2026-05-07 12:59 | -25.23921 | -57.51682 | 279 ft | 12 kts | 186° |
| 2026-05-07 12:59 | -25.24001 | -57.51643 | 280 ft | 15 kts | 147° |
| 2026-05-07 12:59 | -25.24073 | -57.51591 | 280 ft | 9 kts | 144° |
| 2026-05-07 13:00 | -25.24113 | -57.51538 | 281 ft | 6 kts | 113° |
| 2026-05-07 13:00 | -25.24114 | -57.51536 | 281 ft | 0 kts | 112° |
| 2026-05-07 13:00 | -25.24114 | -57.51529 | 281 ft | 2 kts | 94° |
| 2026-05-07 13:01 | -25.24112 | -57.51506 | 281 ft | 4 kts | 97° |
| 2026-05-07 13:01 | -25.24127 | -57.51488 | 281 ft | 3 kts | 139° |
| 2026-05-07 13:01 | -25.24131 | -57.51484 | 281 ft | 0 kts | 139° |